createdAt,value
2023-03-01T00:00:32.743Z,24.23
2023-03-01T00:05:36.525Z,26.57
2023-03-01T00:10:42.299Z,24.03
2023-03-01T00:15:44.830Z,23.80
2023-03-01T00:20:53.790Z,25.77
2023-03-01T00:25:56.435Z,23.97
2023-03-01T00:30:58.772Z,26.37
2023-03-01T00:36:03.145Z,28.57
2023-03-01T00:41:08.580Z,23.33
2023-03-01T00:46:13.756Z,25.00
2023-03-01T00:51:20.647Z,25.83
2023-03-01T00:56:23.757Z,24.67
2023-03-01T01:01:31.855Z,26.20
2023-03-01T01:06:36.918Z,26.93
2023-03-01T01:11:39.376Z,25.90
2023-03-01T01:16:42.016Z,27.67
2023-03-01T01:21:46.082Z,29.30
2023-03-01T01:26:49.047Z,27.90
2023-03-01T01:31:51.408Z,25.90
2023-03-01T01:36:56.187Z,25.10
2023-03-01T01:41:58.622Z,27.23
2023-03-01T01:47:05.913Z,24.63
2023-03-01T01:52:13.781Z,22.67
2023-03-01T01:57:20.365Z,24.40
2023-03-01T02:02:23.416Z,26.17
2023-03-01T02:07:28.373Z,30.70
2023-03-01T02:12:31.531Z,29.37
2023-03-01T02:17:35.926Z,28.17
2023-03-01T02:22:41.111Z,30.10
2023-03-01T02:27:54.309Z,26.30
2023-03-01T02:33:05.726Z,30.20
2023-03-01T02:38:10.960Z,32.07
2023-03-01T02:43:14.403Z,25.57
2023-03-01T02:48:18.141Z,26.13
2023-03-01T02:53:28.117Z,30.73
2023-03-01T02:58:30.350Z,26.63
2023-03-01T03:03:34.102Z,27.23
2023-03-01T03:08:36.187Z,25.80
2023-03-01T03:13:39.445Z,27.80
2023-03-01T03:18:43.524Z,25.07
2023-03-01T03:23:45.902Z,27.23
2023-03-01T03:28:48.255Z,27.07
2023-03-01T03:33:52.111Z,29.23
2023-03-01T03:38:54.194Z,26.70
2023-03-01T03:43:56.204Z,29.70
2023-03-01T03:49:00.519Z,27.27
2023-03-01T03:54:02.538Z,28.43
2023-03-01T03:59:04.910Z,27.23
2023-03-01T04:04:08.974Z,28.47
2023-03-01T04:09:10.951Z,27.83
2023-03-01T04:14:13.731Z,28.33
2023-03-01T04:19:17.693Z,25.33
2023-03-01T04:24:19.963Z,27.77
2023-03-01T04:29:21.789Z,26.70
2023-03-01T04:34:25.184Z,28.00
2023-03-01T04:39:27.562Z,29.00
2023-03-01T04:44:29.939Z,29.53
2023-03-01T04:49:33.290Z,28.30
2023-03-01T04:54:36.193Z,29.23
2023-03-01T04:59:38.606Z,30.13
2023-03-01T05:04:41.910Z,25.13
2023-03-01T05:09:43.950Z,27.07
2023-03-01T05:14:46.035Z,26.07
2023-03-01T05:19:49.852Z,27.40
2023-03-01T05:24:52.046Z,28.17
2023-03-01T05:29:55.772Z,27.10
2023-03-01T05:34:59.502Z,24.40
2023-03-01T05:40:01.528Z,24.17
2023-03-01T05:45:03.632Z,27.67
2023-03-01T05:50:08.629Z,26.73
2023-03-01T05:55:11.508Z,28.93
2023-03-01T06:00:15.240Z,26.77
2023-03-01T06:05:18.851Z,24.23
2023-03-01T06:10:22.346Z,25.67
2023-03-01T06:15:25.178Z,29.07
2023-03-01T06:20:30.971Z,23.27
2023-03-01T06:25:33.225Z,24.17
2023-03-01T06:30:35.216Z,26.70
2023-03-01T06:35:39.017Z,30.37
2023-03-01T06:40:41.418Z,27.07
2023-03-01T06:45:44.222Z,27.67
2023-03-01T06:50:48.289Z,28.17
2023-03-01T06:55:55.872Z,26.40
2023-03-01T07:00:58.569Z,27.37
2023-03-01T07:06:02.348Z,26.77
2023-03-01T07:11:05.218Z,27.77
2023-03-01T07:16:08.257Z,29.37
2023-03-01T07:21:14.549Z,24.30
2023-03-01T07:26:16.986Z,27.00
2023-03-01T07:31:19.347Z,22.03
2023-03-01T07:36:22.932Z,25.20
2023-03-01T07:41:25.284Z,23.40
2023-03-01T07:46:27.435Z,22.07
2023-03-01T07:51:31.240Z,26.73
2023-03-01T07:56:33.889Z,28.40
2023-03-01T08:01:36.218Z,25.07
2023-03-01T08:06:39.937Z,25.90
2023-03-01T08:11:42.221Z,28.30
2023-03-01T08:16:44.651Z,24.63
2023-03-01T08:21:48.266Z,26.13
2023-03-01T08:26:50.250Z,25.60
2023-03-01T08:31:53.789Z,24.90
2023-03-01T08:36:57.573Z,26.43
2023-03-01T08:42:00.003Z,26.03
2023-03-01T08:47:03.610Z,25.03
2023-03-01T08:52:07.356Z,23.23
2023-03-01T08:57:10.813Z,26.47
2023-03-01T09:02:15.565Z,25.67
2023-03-01T09:07:19.199Z,23.77
2023-03-01T09:12:21.117Z,24.83
2023-03-01T09:17:23.763Z,25.23
2023-03-01T09:22:27.351Z,25.93
2023-03-01T09:27:29.823Z,24.60
2023-03-01T09:32:33.483Z,25.23
2023-03-01T09:37:38.559Z,24.33
2023-03-01T09:42:51.168Z,27.57
2023-03-01T09:47:53.927Z,25.47
2023-03-01T09:53:04.156Z,30.97
2023-03-01T09:58:29.739Z,16.47
2023-03-01T10:03:39.251Z,21.77
2023-03-01T10:08:48.842Z,25.63
2023-03-01T10:13:57.738Z,24.27
2023-03-01T10:19:04.521Z,25.13
2023-03-01T10:24:15.701Z,24.97
2023-03-01T10:29:18.584Z,23.50
2023-03-01T10:34:23.210Z,25.47
2023-03-01T10:39:28.120Z,26.10
2023-03-01T10:44:47.926Z,26.07
2023-03-01T10:50:01.855Z,23.93
2023-03-01T10:55:25.720Z,25.17
2023-03-01T11:00:29.066Z,24.73
2023-03-01T11:05:34.757Z,22.40
2023-03-01T11:10:39.028Z,23.10
2023-03-01T11:15:41.900Z,22.23
2023-03-01T11:20:44.536Z,22.83
2023-03-01T11:25:53.499Z,23.27
2023-03-01T11:31:08.295Z,21.27
2023-03-01T11:36:20.078Z,23.50
2023-03-01T11:41:28.904Z,25.63
2023-03-01T11:46:52.166Z,22.60
2023-03-01T11:52:00.987Z,23.70
2023-03-01T11:57:15.343Z,19.10
2023-03-01T12:03:00.012Z,20.37
2023-03-01T12:08:10.516Z,18.23
2023-03-01T12:13:47.611Z,18.83
2023-03-01T12:19:10.880Z,17.73
2023-03-01T12:24:36.001Z,17.17
2023-03-01T12:29:47.287Z,15.77
2023-03-01T12:35:13.815Z,15.65
2023-03-01T12:40:38.267Z,16.90
2023-03-01T12:46:00.024Z,16.60
2023-03-01T12:51:05.614Z,20.07
2023-03-01T12:56:13.224Z,19.80
2023-03-01T13:01:25.743Z,19.10
2023-03-01T13:06:43.468Z,18.50
2023-03-01T13:11:46.319Z,19.27
2023-03-01T13:16:51.296Z,22.33
2023-03-01T13:21:55.858Z,22.77
2023-03-01T13:27:26.446Z,19.13
2023-03-01T13:32:48.871Z,21.63
2023-03-01T13:37:51.380Z,20.33
2023-03-01T13:43:04.704Z,21.33
2023-03-01T13:48:14.281Z,19.40
2023-03-01T13:53:20.542Z,20.60
2023-03-01T13:58:26.265Z,22.50
2023-03-01T14:03:31.983Z,20.77
2023-03-01T14:08:35.051Z,20.10
2023-03-01T14:13:51.624Z,19.30
2023-03-01T14:19:03.900Z,18.07
2023-03-01T14:24:06.648Z,24.27
2023-03-01T14:29:08.887Z,20.43
2023-03-01T14:34:22.915Z,22.50
2023-03-01T14:39:28.146Z,22.57
2023-03-01T14:44:31.124Z,22.67
2023-03-01T14:49:38.220Z,22.07
2023-03-01T14:54:43.717Z,21.03
2023-03-01T14:59:46.590Z,22.00
2023-03-01T15:04:52.621Z,22.60
2023-03-01T15:09:55.143Z,20.93
2023-03-01T15:15:04.169Z,23.97
2023-03-01T15:20:19.695Z,26.40
2023-03-01T15:25:24.155Z,23.63
2023-03-01T15:30:29.745Z,25.10
2023-03-01T15:35:46.813Z,24.90
2023-03-01T15:40:53.127Z,24.30
2023-03-01T15:45:59.578Z,25.50
2023-03-01T15:51:03.764Z,22.87
2023-03-01T15:56:08.536Z,28.87
2023-03-01T16:01:15.378Z,24.87
2023-03-01T16:06:19.204Z,26.53
2023-03-01T16:11:22.640Z,23.90
2023-03-01T16:16:25.611Z,30.50
2023-03-01T16:21:30.277Z,28.03
2023-03-01T16:26:32.780Z,26.73
2023-03-01T16:31:35.580Z,25.37
2023-03-01T16:36:39.852Z,25.20
2023-03-01T16:41:42.827Z,28.07
2023-03-01T16:46:45.449Z,25.47
2023-03-01T16:51:51.402Z,24.57
2023-03-01T16:56:54.075Z,28.43
2023-03-01T17:01:57.980Z,29.47
2023-03-01T17:07:02.343Z,25.53
2023-03-01T17:12:09.094Z,27.83
2023-03-01T17:17:11.749Z,30.37
2023-03-01T17:22:16.543Z,25.00
2023-03-01T17:27:19.558Z,28.03
2023-03-01T17:32:23.560Z,28.90
2023-03-01T17:37:30.276Z,26.40
2023-03-01T17:42:32.789Z,27.20
2023-03-01T17:47:35.842Z,28.23
2023-03-01T17:52:41.714Z,26.63
2023-03-01T17:57:44.498Z,30.37
2023-03-01T18:02:47.439Z,32.13
2023-03-01T18:07:53.055Z,30.07
2023-03-01T18:12:58.502Z,31.80
2023-03-01T18:18:01.930Z,27.67
2023-03-01T18:23:06.949Z,33.50
2023-03-01T18:28:10.107Z,29.13
2023-03-01T18:33:13.494Z,28.47
2023-03-01T18:38:19.305Z,27.73
2023-03-01T18:43:22.898Z,28.87
2023-03-01T18:48:27.814Z,30.83
2023-03-01T18:53:33.469Z,30.03
2023-03-01T18:58:37.720Z,31.57
2023-03-01T19:03:41.348Z,28.23
2023-03-01T19:08:46.111Z,30.13
2023-03-01T19:13:52.582Z,30.77
2023-03-01T19:19:00.115Z,31.00
2023-03-01T19:24:05.229Z,27.23
2023-03-01T19:29:09.069Z,30.50
2023-03-01T19:34:14.353Z,28.57
2023-03-01T19:39:22.604Z,27.90
2023-03-01T19:44:29.140Z,29.03
2023-03-01T19:49:33.812Z,32.13
2023-03-01T19:55:31.268Z,32.40
2023-03-01T20:00:37.708Z,32.60
2023-03-01T20:05:46.323Z,32.67
2023-03-01T20:10:50.987Z,32.63
2023-03-01T20:15:54.547Z,33.87
2023-03-01T20:21:00.947Z,31.10
2023-03-01T20:26:08.206Z,31.80
2023-03-01T20:31:19.009Z,34.57
2023-03-01T20:36:24.083Z,34.47
2023-03-01T20:41:30.724Z,38.67
2023-03-01T20:46:35.332Z,33.77
2023-03-01T20:51:38.789Z,37.50
2023-03-01T20:56:44.018Z,36.37
2023-03-01T21:01:47.598Z,34.77
2023-03-01T21:06:51.648Z,34.40
2023-03-01T21:11:59.809Z,39.33
2023-03-01T21:17:03.353Z,33.07
2023-03-01T21:22:06.278Z,36.80
2023-03-01T21:27:10.402Z,34.97
2023-03-01T21:32:13.665Z,39.63
2023-03-01T21:37:17.218Z,35.50
2023-03-01T21:42:21.560Z,34.20
2023-03-01T21:47:23.749Z,35.57
2023-03-01T21:52:26.391Z,32.37
2023-03-01T21:57:31.015Z,37.23
2023-03-01T22:02:33.795Z,35.60
2023-03-01T22:07:38.755Z,34.77
2023-03-01T22:12:42.474Z,38.07
2023-03-01T22:17:51.340Z,35.40
2023-03-01T22:22:54.636Z,37.60
2023-03-01T22:27:59.481Z,37.00
2023-03-01T22:33:01.530Z,33.13
2023-03-01T22:38:07.291Z,37.70
2023-03-01T22:43:10.997Z,36.87
2023-03-01T22:48:23.015Z,36.77
2023-03-01T22:54:00.389Z,37.53
2023-03-01T22:59:23.673Z,39.40
2023-03-01T23:04:26.318Z,33.47
2023-03-01T23:09:30.967Z,38.73
2023-03-01T23:14:35.123Z,34.20
2023-03-01T23:19:37.264Z,32.87
2023-03-01T23:24:40.004Z,32.33
2023-03-01T23:29:44.232Z,35.23
2023-03-01T23:34:46.660Z,36.20
2023-03-01T23:39:51.204Z,35.07
2023-03-01T23:44:54.607Z,30.63
2023-03-01T23:49:57.497Z,29.73
2023-03-01T23:54:59.764Z,33.33
